createdAt,value
2018-09-10T00:04:21.761Z,0.0
2018-09-10T00:05:25.153Z,0.0
2018-09-10T00:06:07.696Z,0.0
2018-09-10T00:07:04.091Z,0.0
2018-09-10T00:08:29.166Z,0.0
2018-09-10T00:10:06.117Z,0.0
2018-09-10T00:11:26.134Z,0.0
2018-09-10T00:12:09.086Z,0.0
2018-09-10T00:13:15.995Z,0.0
2018-09-10T00:14:37.372Z,0.0
2018-09-10T00:15:14.425Z,0.0
2018-09-10T00:16:00.555Z,0.0
2018-09-10T00:17:11.553Z,0.0
2018-09-10T00:18:06.321Z,0.0
2018-09-10T00:21:06.851Z,0.0
2018-09-10T00:22:01.200Z,0.0
2018-09-10T00:24:15.076Z,0.0
2018-09-10T00:25:58.794Z,0.0
2018-09-10T00:27:17.492Z,0.0
2018-09-10T00:28:13.523Z,0.0
2018-09-10T00:29:58.197Z,0.0
2018-09-10T00:32:24.657Z,0.0
2018-09-10T00:33:15.553Z,0.0
2018-09-10T00:34:11.261Z,0.0
2018-09-10T00:35:14.897Z,0.0
2018-09-10T00:36:13.863Z,0.0
2018-09-10T00:37:34.120Z,0.0
2018-09-10T00:39:23.958Z,0.0
2018-09-10T00:40:15.052Z,0.0
2018-09-10T00:41:10.431Z,0.0
2018-09-10T00:42:16.157Z,0.0
2018-09-10T00:43:16.101Z,0.0
2018-09-10T00:45:26.189Z,0.0
2018-09-10T00:46:18.763Z,0.0
2018-09-10T00:47:27.908Z,0.0
2018-09-10T00:48:28.829Z,0.0
2018-09-10T00:49:20.239Z,0.0
2018-09-10T00:50:25.191Z,0.0
2018-09-10T00:51:15.514Z,0.0
2018-09-10T00:53:39.572Z,0.0
2018-09-10T00:54:29.372Z,0.0
2018-09-10T00:55:15.113Z,0.0
2018-09-10T00:56:40.104Z,0.0
2018-09-10T00:58:28.151Z,0.0
2018-09-10T00:59:49.249Z,0.0
2018-09-10T01:00:25.222Z,0.0
2018-09-10T01:02:28.424Z,0.0
2018-09-10T01:03:27.266Z,0.0
2018-09-10T01:05:12.072Z,0.0
2018-09-10T01:08:18.012Z,0.0
2018-09-10T01:09:24.950Z,0.0
2018-09-10T01:10:06.713Z,0.0
2018-09-10T01:12:25.891Z,0.0
2018-09-10T01:14:51.328Z,0.0
2018-09-10T01:16:25.346Z,0.0
2018-09-10T01:18:47.726Z,0.0
2018-09-10T01:20:56.525Z,0.0
2018-09-10T01:22:48.192Z,0.0
2018-09-10T01:24:11.219Z,0.0
2018-09-10T01:26:09.090Z,0.0
2018-09-10T01:26:59.556Z,0.0
2018-09-10T01:29:45.228Z,0.0
2018-09-10T01:32:19.589Z,0.0
2018-09-10T01:33:15.469Z,0.0
2018-09-10T01:35:10.289Z,0.0
2018-09-10T01:36:29.900Z,0.0
2018-09-10T01:37:19.604Z,0.0
2018-09-10T01:38:29.608Z,0.0
2018-09-10T01:40:37.241Z,0.0
2018-09-10T01:41:34.498Z,0.0
2018-09-10T01:42:38.811Z,0.0
2018-09-10T01:44:06.731Z,0.0
2018-09-10T01:47:59.622Z,0.0
2018-09-10T01:49:35.473Z,0.0
2018-09-10T01:51:32.447Z,0.0
2018-09-10T01:53:18.949Z,0.0
2018-09-10T01:54:34.831Z,0.0
2018-09-10T01:55:18.664Z,0.0
2018-09-10T02:01:18.772Z,0.0
2018-09-10T02:01:32.811Z,0.0
2018-09-10T02:02:33.632Z,0.0
2018-09-10T02:03:33.508Z,0.0
2018-09-10T02:05:40.421Z,0.0
2018-09-10T02:07:27.192Z,0.0
2018-09-10T02:08:51.776Z,0.0
2018-09-10T02:13:48.181Z,0.0
2018-09-10T02:28:40.999Z,0.0
2018-09-10T02:46:31.810Z,0.0
2018-09-10T02:47:44.676Z,0.0
2018-09-10T02:49:42.810Z,0.0
2018-09-10T02:51:13.361Z,0.0
2018-09-10T02:52:39.273Z,0.0
2018-09-10T02:54:36.242Z,0.0
2018-09-10T02:57:48.565Z,0.0
2018-09-10T02:59:31.711Z,0.0
2018-09-10T02:59:47.098Z,0.0
2018-09-10T03:00:47.336Z,0.0
2018-09-10T03:01:47.723Z,0.0
2018-09-10T03:02:47.296Z,0.0
2018-09-10T03:04:47.400Z,0.0
2018-09-10T03:05:47.561Z,0.0
2018-09-10T03:06:46.542Z,0.0
2018-09-10T03:07:47.583Z,0.0
2018-09-10T03:08:49.281Z,0.0
2018-09-10T03:09:52.450Z,0.0
2018-09-10T03:10:51.383Z,0.0
2018-09-10T03:11:51.283Z,0.0
2018-09-10T03:12:48.126Z,0.0
2018-09-10T03:13:49.231Z,0.0
2018-09-10T03:14:46.667Z,0.0
2018-09-10T03:15:49.698Z,0.0
2018-09-10T03:17:08.252Z,0.0
2018-09-10T03:18:54.143Z,0.0
2018-09-10T03:20:13.517Z,0.0
2018-09-10T03:21:08.893Z,0.0
2018-09-10T03:22:22.950Z,0.0
2018-09-10T03:23:22.278Z,0.0
2018-09-10T03:24:07.698Z,0.0
2018-09-10T03:24:56.789Z,0.0
2018-09-10T03:26:37.379Z,0.0
2018-09-10T03:31:03.567Z,0.0
2018-09-10T03:32:07.772Z,0.0
2018-09-10T03:33:58.125Z,0.0
2018-09-10T03:35:10.466Z,0.0
2018-09-10T03:36:41.227Z,0.0
2018-09-10T03:38:06.400Z,0.0
2018-09-10T03:39:54.113Z,0.0
2018-09-10T03:41:26.256Z,0.0
2018-09-10T03:42:07.726Z,0.0
2018-09-10T03:43:07.697Z,0.0
2018-09-10T03:44:08.518Z,0.0
2018-09-10T03:45:08.850Z,0.0
2018-09-10T03:46:08.567Z,0.0
2018-09-10T03:47:07.840Z,0.0
2018-09-10T03:48:07.960Z,0.0
2018-09-10T03:49:12.505Z,0.0
2018-09-10T03:50:11.962Z,0.0
2018-09-10T03:51:18.605Z,0.0
2018-09-10T03:52:21.844Z,0.0
2018-09-10T03:53:53.412Z,0.0
2018-09-10T03:54:33.479Z,0.0
2018-09-10T03:55:14.963Z,0.0
2018-09-10T03:56:08.472Z,0.0
2018-09-10T03:57:07.804Z,0.0
2018-09-10T03:58:07.836Z,0.0
2018-09-10T03:59:08.285Z,0.0
2018-09-10T04:01:08.596Z,0.0
2018-09-10T04:02:12.928Z,0.0
2018-09-10T04:03:13.490Z,0.0
2018-09-10T04:05:08.014Z,0.0
2018-09-10T04:07:15.791Z,0.0
2018-09-10T04:09:19.782Z,0.0
2018-09-10T04:13:16.381Z,0.0
2018-09-10T04:14:08.315Z,0.0
2018-09-10T04:15:17.645Z,0.0
2018-09-10T04:16:15.641Z,0.0
2018-09-10T04:17:23.061Z,0.0
2018-09-10T04:20:51.270Z,0.0
2018-09-10T04:21:10.913Z,0.0
2018-09-10T04:22:04.931Z,0.0
2018-09-10T04:23:06.534Z,0.0
2018-09-10T04:25:03.637Z,0.0
2018-09-10T04:26:06.655Z,0.0
2018-09-10T04:26:22.257Z,0.0
2018-09-10T04:27:21.951Z,0.0
2018-09-10T04:28:21.848Z,0.0
2018-09-10T04:29:34.459Z,0.0
2018-09-10T04:30:43.361Z,0.0
2018-09-10T04:31:22.703Z,0.0
2018-09-10T04:32:41.039Z,0.0
2018-09-10T04:34:51.928Z,0.0
2018-09-10T04:35:02.867Z,0.0
2018-09-10T04:36:36.028Z,0.0
2018-09-10T04:37:02.703Z,0.0
2018-09-10T04:38:02.710Z,0.0
2018-09-10T04:39:02.465Z,0.0
2018-09-10T04:41:15.254Z,0.0
2018-09-10T04:43:18.337Z,0.0
2018-09-10T04:44:16.792Z,0.0
2018-09-10T04:45:15.516Z,0.0
2018-09-10T04:46:17.584Z,0.0
2018-09-10T04:48:18.358Z,0.0
2018-09-10T04:49:32.185Z,0.0
2018-09-10T04:51:16.286Z,0.0
2018-09-10T04:52:15.823Z,0.0
2018-09-10T04:53:15.313Z,0.0
2018-09-10T04:54:15.507Z,0.0
2018-09-10T04:55:15.401Z,0.0
2018-09-10T04:56:15.388Z,0.0
2018-09-10T04:57:15.407Z,0.0
2018-09-10T04:58:15.399Z,0.0
2018-09-10T04:59:15.437Z,0.0
2018-09-10T05:00:19.070Z,0.0
2018-09-10T05:02:21.191Z,0.0
2018-09-10T05:04:55.462Z,0.0
2018-09-10T05:05:34.656Z,0.0
2018-09-10T05:07:13.328Z,0.0
2018-09-10T05:07:33.531Z,0.0
2018-09-10T05:09:16.980Z,0.0
2018-09-10T05:09:42.755Z,0.0
2018-09-10T05:10:34.478Z,0.0
2018-09-10T05:11:33.435Z,0.0
2018-09-10T05:13:34.751Z,0.0
2018-09-10T05:14:01.919Z,0.0
2018-09-10T05:14:49.739Z,0.0
2018-09-10T05:16:04.420Z,0.0
2018-09-10T05:17:24.214Z,0.0
2018-09-10T05:17:51.969Z,0.0
2018-09-10T05:19:50.152Z,0.0
2018-09-10T05:20:38.780Z,0.0
2018-09-10T05:21:46.203Z,0.0
2018-09-10T05:22:43.239Z,0.0
2018-09-10T05:23:22.206Z,0.0
2018-09-10T05:24:27.471Z,0.0
2018-09-10T05:25:28.745Z,0.0
2018-09-10T05:26:35.060Z,0.0
2018-09-10T05:37:56.249Z,0.0
2018-09-10T05:38:43.267Z,0.0
2018-09-10T05:39:39.422Z,0.0
2018-09-10T05:40:39.295Z,0.0
2018-09-10T05:41:45.480Z,0.0
2018-09-10T05:42:41.074Z,0.0
2018-09-10T05:43:46.615Z,0.0
2018-09-10T05:44:44.264Z,0.0
2018-09-10T05:45:43.923Z,0.0
2018-09-10T05:46:45.297Z,0.0
2018-09-10T05:47:41.561Z,0.0
2018-09-10T05:48:43.532Z,0.0
2018-09-10T05:49:44.011Z,0.0
2018-09-10T05:50:40.486Z,0.0
2018-09-10T05:51:40.707Z,0.0
2018-09-10T05:52:44.759Z,0.0
2018-09-10T05:53:43.021Z,0.0
2018-09-10T05:54:43.955Z,0.0
2018-09-10T05:55:40.004Z,0.0
2018-09-10T05:56:42.738Z,0.0
2018-09-10T05:57:39.694Z,0.0
2018-09-10T05:58:39.723Z,0.0
2018-09-10T05:59:39.657Z,0.0
2018-09-10T06:00:39.752Z,0.0
2018-09-10T06:01:39.697Z,0.0
2018-09-10T06:02:39.680Z,0.0
2018-09-10T06:03:39.579Z,0.0
2018-09-10T06:04:39.641Z,0.0
2018-09-10T06:06:39.672Z,0.0
2018-09-10T06:07:39.946Z,0.0
2018-09-10T06:08:39.858Z,0.0
2018-09-10T06:09:39.651Z,0.0
2018-09-10T06:10:39.843Z,0.0
2018-09-10T06:11:39.682Z,0.0
2018-09-10T06:12:40.299Z,0.0
2018-09-10T06:13:40.345Z,0.0
2018-09-10T06:14:41.917Z,0.0
2018-09-10T06:15:40.999Z,0.0
2018-09-10T06:17:40.400Z,0.0
2018-09-10T06:18:41.188Z,0.0
2018-09-10T06:19:39.708Z,0.0
2018-09-10T06:20:39.567Z,0.0
2018-09-10T06:21:39.811Z,0.0
2018-09-10T06:22:39.814Z,0.0
2018-09-10T06:23:41.300Z,0.0
2018-09-10T06:24:43.346Z,0.0
2018-09-10T06:25:40.485Z,0.0
2018-09-10T06:26:50.925Z,0.0
2018-09-10T06:27:42.373Z,0.0
2018-09-10T06:28:40.521Z,0.0
2018-09-10T06:30:39.897Z,0.0
2018-09-10T06:31:40.228Z,0.0
2018-09-10T06:32:40.490Z,0.0
2018-09-10T06:33:40.808Z,0.0
2018-09-10T06:34:39.780Z,0.0
2018-09-10T06:35:40.672Z,0.0
2018-09-10T06:36:39.963Z,0.0
2018-09-10T06:37:39.730Z,0.0
2018-09-10T06:38:39.687Z,0.0
2018-09-10T06:40:40.696Z,0.0
2018-09-10T06:42:40.729Z,0.0
2018-09-10T06:43:41.626Z,0.0
2018-09-10T06:44:39.714Z,0.0
2018-09-10T06:46:40.037Z,0.0
2018-09-10T06:47:39.907Z,0.0
2018-09-10T06:48:39.595Z,0.0
2018-09-10T06:49:39.608Z,0.0
2018-09-10T06:50:39.976Z,0.0
2018-09-10T06:51:43.029Z,0.0
2018-09-10T06:52:39.757Z,0.0
2018-09-10T07:04:38.935Z,0.0
2018-09-10T07:05:40.943Z,0.0
2018-09-10T07:06:38.784Z,0.0
2018-09-10T07:07:39.028Z,0.0
2018-09-10T07:08:40.044Z,0.0
2018-09-10T07:10:39.411Z,0.0
2018-09-10T07:11:39.060Z,0.0
2018-09-10T07:12:39.011Z,0.0
2018-09-10T07:13:38.673Z,0.0
2018-09-10T07:14:39.610Z,0.0
2018-09-10T07:15:39.315Z,0.0
2018-09-10T07:17:38.797Z,0.0
2018-09-10T07:18:39.657Z,0.0
2018-09-10T07:19:40.016Z,0.0
2018-09-10T07:20:43.117Z,0.0
2018-09-10T07:21:40.483Z,0.0
2018-09-10T07:22:38.702Z,0.0
2018-09-10T07:23:38.945Z,0.0
2018-09-10T07:24:50.416Z,0.0
2018-09-10T07:26:04.326Z,0.0
2018-09-10T07:26:40.130Z,0.0
2018-09-10T07:27:39.112Z,0.0
2018-09-10T07:28:40.143Z,0.0
2018-09-10T07:29:39.335Z,0.0
2018-09-10T07:31:38.695Z,0.0
2018-09-10T07:32:39.094Z,0.0
2018-09-10T07:33:40.712Z,0.0
2018-09-10T07:34:38.998Z,0.0
2018-09-10T07:35:39.177Z,0.0
2018-09-10T07:36:38.756Z,0.0
2018-09-10T07:37:39.237Z,0.0
2018-09-10T07:38:38.859Z,0.0
2018-09-10T07:39:40.063Z,0.0
2018-09-10T07:40:39.009Z,0.0
2018-09-10T07:41:39.973Z,0.0
2018-09-10T07:42:38.706Z,0.0
2018-09-10T07:43:39.143Z,0.0
2018-09-10T07:44:39.445Z,0.0
2018-09-10T07:46:41.210Z,0.0
2018-09-10T07:47:40.184Z,0.0
2018-09-10T07:48:39.467Z,0.0
2018-09-10T07:49:38.886Z,0.0
2018-09-10T07:50:38.844Z,0.0
2018-09-10T07:51:39.682Z,0.0
2018-09-10T07:52:42.859Z,0.0
2018-09-10T07:53:40.576Z,0.0
2018-09-10T07:54:38.763Z,0.0
2018-09-10T07:55:38.918Z,0.0
2018-09-10T07:56:39.430Z,0.0
2018-09-10T07:58:39.468Z,0.0
2018-09-10T07:59:40.356Z,0.0
2018-09-10T08:00:38.882Z,0.0
2018-09-10T08:01:44.214Z,0.0
2018-09-10T08:02:44.323Z,0.0
2018-09-10T08:03:38.695Z,0.0
2018-09-10T08:04:38.809Z,0.0
2018-09-10T08:05:38.763Z,0.0
2018-09-10T08:06:39.291Z,0.0
2018-09-10T08:07:39.048Z,0.0
2018-09-10T08:08:38.859Z,0.0
2018-09-10T08:09:39.739Z,0.0
2018-09-10T08:10:38.878Z,0.0
2018-09-10T08:11:39.087Z,0.0
2018-09-10T08:14:19.925Z,0.0
2018-09-10T08:14:28.621Z,0.0
2018-09-10T08:15:29.299Z,0.0
2018-09-10T08:16:28.619Z,0.0
2018-09-10T08:17:28.586Z,0.0
2018-09-10T08:18:28.925Z,0.0
2018-09-10T08:19:28.679Z,0.0
2018-09-10T08:20:28.593Z,0.0
2018-09-10T08:21:30.313Z,0.0
2018-09-10T08:22:28.529Z,0.0
2018-09-10T08:23:29.022Z,0.0
2018-09-10T08:24:28.754Z,0.0
2018-09-10T08:25:28.577Z,0.0
2018-09-10T08:26:28.736Z,0.0
2018-09-10T08:27:28.676Z,0.0
2018-09-10T08:28:29.284Z,0.0
2018-09-10T08:29:28.844Z,0.0
2018-09-10T08:30:29.087Z,0.0
2018-09-10T08:31:29.696Z,0.0
2018-09-10T08:32:29.709Z,0.0
2018-09-10T08:33:29.033Z,0.0
2018-09-10T08:34:28.826Z,0.0
2018-09-10T08:35:29.889Z,0.0
2018-09-10T08:36:30.427Z,0.0
2018-09-10T08:37:29.150Z,0.0
2018-09-10T08:38:29.755Z,0.0
2018-09-10T08:40:30.014Z,0.0
2018-09-10T08:41:45.828Z,0.0
2018-09-10T08:42:29.436Z,0.0
2018-09-10T08:43:28.684Z,0.2
2018-09-10T08:44:29.472Z,0.2
2018-09-10T08:45:28.718Z,0.2
2018-09-10T08:46:31.411Z,0.0
2018-09-10T08:47:31.583Z,0.0
2018-09-10T08:48:29.498Z,0.0
2018-09-10T08:49:30.246Z,0.0
2018-09-10T08:50:29.437Z,0.0
2018-09-10T08:51:28.887Z,0.0
2018-09-10T08:52:30.893Z,0.0
2018-09-10T08:53:29.873Z,0.0
2018-09-10T08:54:40.470Z,0.0
2018-09-10T08:56:28.603Z,0.0
2018-09-10T08:57:28.664Z,0.0
2018-09-10T08:58:28.751Z,0.0
2018-09-10T08:59:29.309Z,0.0
2018-09-10T09:00:29.395Z,0.0
2018-09-10T09:01:29.093Z,0.5
2018-09-10T09:02:30.298Z,0.5
2018-09-10T09:03:28.619Z,0.5
2018-09-10T09:04:31.293Z,0.0
2018-09-10T09:05:29.941Z,0.0
2018-09-10T09:06:28.782Z,0.0
2018-09-10T09:07:28.709Z,0.0
2018-09-10T09:09:30.185Z,0.0
2018-09-10T09:10:28.761Z,0.0
2018-09-10T09:11:29.530Z,0.0
2018-09-10T09:12:29.143Z,0.0
2018-09-10T09:13:29.872Z,0.0
2018-09-10T09:15:29.411Z,0.0
2018-09-10T09:17:29.234Z,0.2
2018-09-10T09:18:31.703Z,0.2
2018-09-10T09:19:29.005Z,0.0
2018-09-10T09:20:29.075Z,0.0
2018-09-10T09:21:30.145Z,0.0
2018-09-10T09:22:29.650Z,0.0
2018-09-10T09:23:29.668Z,0.0
2018-09-10T09:24:30.975Z,0.0
2018-09-10T09:25:30.073Z,0.0
2018-09-10T09:27:28.835Z,2.2
2018-09-10T09:29:29.626Z,0.5
2018-09-10T09:30:29.033Z,0.5
2018-09-10T09:31:29.672Z,0.5
2018-09-10T09:32:28.789Z,1.9
2018-09-10T09:34:28.926Z,1.1
2018-09-10T09:35:28.717Z,1.1
2018-09-10T09:36:28.786Z,1.1
2018-09-10T09:37:30.908Z,0.0
2018-09-10T09:38:30.596Z,0.0
2018-09-10T09:39:29.267Z,0.0
2018-09-10T09:40:29.407Z,0.0
2018-09-10T09:41:29.881Z,0.0
2018-09-10T09:42:29.320Z,0.0
2018-09-10T09:45:29.823Z,0.8
2018-09-10T09:46:28.994Z,0.8
2018-09-10T09:47:29.766Z,1.3
2018-09-10T09:48:29.743Z,1.3
2018-09-10T09:49:28.976Z,1.3
2018-09-10T09:50:29.128Z,0.5
2018-09-10T09:52:30.327Z,0.5
2018-09-10T09:55:29.236Z,6.9
2018-09-10T09:56:58.393Z,6.9
2018-09-10T09:57:29.064Z,3.0
2018-09-10T09:58:29.259Z,3.0
2018-09-10T09:59:29.912Z,3.0
2018-09-10T10:00:29.293Z,0.0
2018-09-10T10:01:29.025Z,0.0
2018-09-10T10:02:30.004Z,1.1
2018-09-10T10:03:29.578Z,1.1
2018-09-10T10:04:29.952Z,1.1
2018-09-10T10:05:29.394Z,1.3
2018-09-10T10:06:30.015Z,1.3
2018-09-10T10:07:31.523Z,0.0
2018-09-10T10:08:29.769Z,0.0
2018-09-10T10:09:29.650Z,0.0
2018-09-10T10:11:30.629Z,0.0
2018-09-10T10:12:29.902Z,0.0
2018-09-10T10:13:29.273Z,0.0
2018-09-10T10:15:29.052Z,0.0
2018-09-10T10:16:28.950Z,0.0
2018-09-10T10:17:49.008Z,0.0
2018-09-10T10:18:28.931Z,0.0
2018-09-10T10:19:29.151Z,0.0
2018-09-10T10:20:29.286Z,1.3
2018-09-10T10:21:31.025Z,1.3
2018-09-10T10:23:30.199Z,0.2
2018-09-10T10:24:29.247Z,0.2
2018-09-10T10:25:29.516Z,0.8
2018-09-10T10:28:28.997Z,0.0
2018-09-10T10:29:29.762Z,0.0
2018-09-10T10:30:28.880Z,2.2
2018-09-10T10:31:28.818Z,2.2
2018-09-10T10:32:29.560Z,2.2
2018-09-10T10:33:28.883Z,2.2
2018-09-10T10:34:29.580Z,2.2
2018-09-10T10:35:28.851Z,0.8
2018-09-10T10:36:29.064Z,0.8
2018-09-10T10:38:53.604Z,0.8
2018-09-10T10:39:02.355Z,0.8
2018-09-10T10:40:03.707Z,2.5
2018-09-10T10:41:03.383Z,0.0
2018-09-10T10:42:02.512Z,0.0
2018-09-10T10:43:02.344Z,0.0
2018-09-10T10:44:11.097Z,0.0
2018-09-10T10:45:05.271Z,0.0
2018-09-10T10:46:03.149Z,0.8
2018-09-10T10:47:04.170Z,0.8
2018-09-10T10:48:02.290Z,0.0
2018-09-10T10:49:03.666Z,0.0
2018-09-10T10:50:02.500Z,0.0
2018-09-10T10:51:02.429Z,0.0
2018-09-10T10:52:03.311Z,0.0
2018-09-10T10:56:02.348Z,0.8
2018-09-10T10:57:03.255Z,0.8
2018-09-10T11:00:43.587Z,3.3
2018-09-10T11:00:57.377Z,3.3
2018-09-10T11:01:58.296Z,1.3
2018-09-10T11:02:58.412Z,1.3
2018-09-10T11:03:58.964Z,0.5
2018-09-10T11:04:58.345Z,0.5
2018-09-10T11:05:58.416Z,0.2
2018-09-10T11:06:58.382Z,0.2
2018-09-10T11:08:58.403Z,1.1
2018-09-10T11:10:58.734Z,0.0
2018-09-10T11:11:59.116Z,0.0
2018-09-10T11:12:59.109Z,0.0
2018-09-10T11:14:00.871Z,0.0
2018-09-10T11:14:58.572Z,0.0
2018-09-10T11:15:59.056Z,0.0
2018-09-10T11:16:58.757Z,0.0
2018-09-10T11:17:58.403Z,0.0
2018-09-10T11:19:05.717Z,0.2
2018-09-10T11:20:15.189Z,0.2
2018-09-10T11:21:58.474Z,2.7
2018-09-10T11:23:00.160Z,2.7
2018-09-10T11:23:58.835Z,0.2
2018-09-10T11:24:58.524Z,0.2
2018-09-10T11:25:58.805Z,0.2
2018-09-10T11:26:58.389Z,0.2
2018-09-10T11:27:59.735Z,0.2
2018-09-10T11:29:58.744Z,0.5
2018-09-10T11:31:00.026Z,0.5
2018-09-10T11:31:58.837Z,0.0
2018-09-10T11:33:00.645Z,0.0
2018-09-10T11:34:00.716Z,4.1
2018-09-10T11:34:58.625Z,4.1
2018-09-10T11:36:01.701Z,4.1
2018-09-10T11:38:00.869Z,6.6
2018-09-10T11:39:58.760Z,4.1
2018-09-10T11:40:59.061Z,4.1
2018-09-10T11:41:58.657Z,8.3
2018-09-10T11:43:00.121Z,8.3
2018-09-10T11:43:58.584Z,3.6
2018-09-10T11:44:58.650Z,3.6
2018-09-10T11:46:00.909Z,3.6
2018-09-10T11:47:10.147Z,5.8
2018-09-10T11:47:59.671Z,5.8
2018-09-10T11:49:59.890Z,2.5
2018-09-10T11:50:58.781Z,2.5
2018-09-10T11:51:59.161Z,5.8
2018-09-10T11:56:02.600Z,5.8
2018-09-10T11:57:12.356Z,1.1
2018-09-10T11:57:59.071Z,1.1
2018-09-10T11:58:58.883Z,1.1
2018-09-10T11:59:59.311Z,5.2
2018-09-10T12:00:59.736Z,5.2
2018-09-10T12:01:58.990Z,4.4
2018-09-10T12:02:58.512Z,4.4
2018-09-10T12:03:58.500Z,4.4
2018-09-10T12:04:59.473Z,7.2
2018-09-10T12:05:59.371Z,7.2
2018-09-10T12:10:58.963Z,18.8
2018-09-10T12:11:59.696Z,2.7
2018-09-10T12:13:00.721Z,2.7
2018-09-10T12:13:58.521Z,2.7
2018-09-10T12:14:58.763Z,4.7
2018-09-10T12:15:58.650Z,4.7
2018-09-10T12:17:00.753Z,28.3
2018-09-10T12:19:01.045Z,28.3
2018-09-10T12:19:59.084Z,5.8
2018-09-10T12:20:59.331Z,5.8
2018-09-10T12:21:59.070Z,5.8
2018-09-10T12:22:59.020Z,6.3
2018-09-10T12:23:59.368Z,6.3
2018-09-10T12:24:59.458Z,4.7
2018-09-10T12:28:02.360Z,4.4
2018-09-10T12:29:58.963Z,9.4
2018-09-10T12:31:59.137Z,9.4
2018-09-10T12:32:58.932Z,4.4
2018-09-10T12:34:00.798Z,4.4
2018-09-10T12:34:58.781Z,4.4
2018-09-10T12:35:58.923Z,4.4
2018-09-10T12:36:59.220Z,4.4
2018-09-10T12:38:59.644Z,5.5
2018-09-10T12:39:59.472Z,5.2
2018-09-10T12:40:59.141Z,5.2
2018-09-10T12:41:59.323Z,5.2
2018-09-10T12:42:59.145Z,9.1
2018-09-10T12:43:59.179Z,9.1
2018-09-10T12:44:59.460Z,3.0
2018-09-10T12:45:59.727Z,3.0
2018-09-10T12:47:01.224Z,3.0
2018-09-10T12:47:59.055Z,4.4
2018-09-10T12:48:59.563Z,4.4
2018-09-10T12:50:00.260Z,4.4
2018-09-10T12:50:58.565Z,4.4
2018-09-10T12:51:59.025Z,4.4
2018-09-10T12:52:59.036Z,0.5
2018-09-10T12:53:59.454Z,0.5
2018-09-10T12:54:59.273Z,0.5
2018-09-10T12:55:58.570Z,5.8
2018-09-10T12:56:58.428Z,5.8
2018-09-10T12:57:59.183Z,5.0
2018-09-10T12:58:58.588Z,5.0
2018-09-10T12:59:59.114Z,5.0
2018-09-10T13:00:58.373Z,5.5
2018-09-10T13:01:58.774Z,5.5
2018-09-10T13:02:58.620Z,6.9
2018-09-10T13:03:58.605Z,6.9
2018-09-10T13:04:59.117Z,6.9
2018-09-10T13:05:58.708Z,3.8
2018-09-10T13:06:58.475Z,3.8
2018-09-10T13:07:58.734Z,5.8
2018-09-10T13:08:58.895Z,5.8
2018-09-10T13:09:58.522Z,5.8
2018-09-10T13:11:58.585Z,8.0
2018-09-10T13:12:58.506Z,6.3
2018-09-10T13:14:00.010Z,6.3
2018-09-10T13:14:58.508Z,6.3
2018-09-10T13:15:58.431Z,6.3
2018-09-10T13:16:59.711Z,6.3
2018-09-10T13:17:58.584Z,2.5
2018-09-10T13:18:58.570Z,2.5
2018-09-10T13:19:58.892Z,2.5
2018-09-10T13:20:58.709Z,3.6
2018-09-10T13:21:58.618Z,3.6
2018-09-10T13:23:01.509Z,3.6
2018-09-10T13:23:58.602Z,3.6
2018-09-10T13:24:59.463Z,3.6
2018-09-10T13:25:58.486Z,3.8
2018-09-10T13:26:59.400Z,3.8
2018-09-10T13:27:58.556Z,3.8
2018-09-10T13:29:58.679Z,2.5
2018-09-10T13:30:58.713Z,0.2
2018-09-10T13:31:58.737Z,0.2
2018-09-10T13:32:59.572Z,0.2
2018-09-10T13:33:58.560Z,2.5
2018-09-10T13:34:58.582Z,2.5
2018-09-10T13:35:58.659Z,10.0
2018-09-10T13:36:59.228Z,10.0
2018-09-10T13:37:59.979Z,10.0
2018-09-10T13:38:58.871Z,8.8
2018-09-10T13:39:58.882Z,8.8
2018-09-10T13:49:07.432Z,0.2
2018-09-10T13:49:18.922Z,0.2
2018-09-10T13:50:18.173Z,11.9
2018-09-10T13:51:18.772Z,5.8
2018-09-10T13:52:18.087Z,5.8
2018-09-10T13:53:18.143Z,5.8
2018-09-10T13:54:18.164Z,9.7
2018-09-10T13:55:18.074Z,9.7
2018-09-10T13:57:18.143Z,9.7
2018-09-10T13:58:21.570Z,9.7
2018-09-10T13:59:18.165Z,3.3
2018-09-10T14:00:18.704Z,3.3
2018-09-10T14:01:18.264Z,6.9
2018-09-10T14:02:18.408Z,6.9
2018-09-10T14:03:18.294Z,6.9
2018-09-10T14:04:18.299Z,7.5
2018-09-10T14:05:18.449Z,7.5
2018-09-10T14:07:18.194Z,7.7
2018-09-10T14:08:18.231Z,7.7
2018-09-10T14:09:18.105Z,8.8
2018-09-10T14:10:18.270Z,8.8
2018-09-10T14:11:18.283Z,8.8
2018-09-10T14:12:18.194Z,11.1
2018-09-10T14:13:18.818Z,11.1
2018-09-10T14:14:19.200Z,9.1
2018-09-10T14:15:18.046Z,9.1
2018-09-10T14:16:18.293Z,9.1
2018-09-10T14:17:18.391Z,9.7
2018-09-10T14:18:18.291Z,9.7
2018-09-10T14:19:18.379Z,5.2
2018-09-10T14:20:18.306Z,5.2
2018-09-10T14:21:18.153Z,5.2
2018-09-10T14:22:18.218Z,6.1
2018-09-10T14:23:18.127Z,6.1
2018-09-10T14:24:18.317Z,8.0
2018-09-10T14:25:18.328Z,8.0
2018-09-10T14:26:18.197Z,8.0
2018-09-10T14:27:18.348Z,3.8
2018-09-10T14:28:18.104Z,3.8
2018-09-10T14:29:18.513Z,3.0
2018-09-10T14:31:18.276Z,3.0
2018-09-10T14:32:18.268Z,8.0
2018-09-10T14:33:18.871Z,8.0
2018-09-10T14:34:23.456Z,6.9
2018-09-10T14:35:18.214Z,6.9
2018-09-10T14:37:19.276Z,6.9
2018-09-10T14:38:18.406Z,6.9
2018-09-10T14:39:18.823Z,7.7
2018-09-10T14:40:18.196Z,7.7
2018-09-10T14:41:18.234Z,7.7
2018-09-10T14:42:18.441Z,8.0
2018-09-10T14:43:18.250Z,8.0
2018-09-10T14:45:18.383Z,6.9
2018-09-10T14:46:18.140Z,6.9
2018-09-10T14:47:18.592Z,8.3
2018-09-10T14:48:18.243Z,8.3
2018-09-10T14:49:18.245Z,8.3
2018-09-10T14:50:18.240Z,4.4
2018-09-10T14:51:18.205Z,4.4
2018-09-10T14:52:18.272Z,4.1
2018-09-10T14:53:18.305Z,4.1
2018-09-10T14:54:19.855Z,4.1
2018-09-10T14:55:22.277Z,7.5
2018-09-10T14:56:19.049Z,7.5
2018-09-10T14:57:18.317Z,6.3
2018-09-10T14:58:18.333Z,6.3
2018-09-10T14:59:18.478Z,6.3
2018-09-10T15:00:18.386Z,4.1
2018-09-10T15:01:18.587Z,4.1
2018-09-10T15:02:18.903Z,2.7
2018-09-10T15:03:18.299Z,2.7
2018-09-10T15:04:19.040Z,2.7
2018-09-10T15:05:19.200Z,3.3
2018-09-10T15:06:19.260Z,3.3
2018-09-10T15:08:18.964Z,2.7
2018-09-10T15:09:18.341Z,2.7
2018-09-10T15:10:18.920Z,4.4
2018-09-10T15:11:18.741Z,4.4
2018-09-10T15:12:18.316Z,4.4
2018-09-10T15:13:18.654Z,1.1
2018-09-10T15:15:18.616Z,3.0
2018-09-10T15:16:19.123Z,3.0
2018-09-10T15:17:18.612Z,3.0
2018-09-10T15:18:18.521Z,3.0
2018-09-10T15:19:18.373Z,3.0
2018-09-10T15:20:18.432Z,1.3
2018-09-10T15:21:19.014Z,1.3
2018-09-10T15:22:18.993Z,1.3
2018-09-10T15:23:18.751Z,0.5
2018-09-10T15:24:18.398Z,0.5
2018-09-10T15:25:20.318Z,1.3
2018-09-10T15:26:18.485Z,1.3
2018-09-10T15:27:18.664Z,1.3
2018-09-10T15:28:18.386Z,0.5
2018-09-10T15:29:19.744Z,0.5
2018-09-10T15:30:19.861Z,0.2
2018-09-10T15:31:18.539Z,0.2
2018-09-10T15:33:10.811Z,0.2
2018-09-10T15:33:20.611Z,0.2
2018-09-10T15:34:22.719Z,1.9
2018-09-10T15:35:22.269Z,0.8
2018-09-10T15:36:19.922Z,0.8
2018-09-10T15:37:21.014Z,0.8
2018-09-10T15:38:19.315Z,3.0
2018-09-10T15:39:43.891Z,3.0
2018-09-10T15:40:37.866Z,6.1
2018-09-10T15:41:20.906Z,6.1
2018-09-10T15:42:19.643Z,6.1
2018-09-10T15:43:19.531Z,4.7
2018-09-10T15:44:19.613Z,4.7
2018-09-10T15:45:19.946Z,4.7
2018-09-10T15:46:20.574Z,1.3
2018-09-10T15:47:19.379Z,1.3
2018-09-10T15:48:19.736Z,2.5
2018-09-10T15:49:19.491Z,2.5
2018-09-10T15:50:20.160Z,2.5
2018-09-10T15:51:19.699Z,3.8
2018-09-10T15:52:19.442Z,3.8
2018-09-10T15:53:21.519Z,28.6
2018-09-10T15:55:19.978Z,28.6
2018-09-10T15:56:19.998Z,26.6
2018-09-10T15:57:19.786Z,26.6
2018-09-10T15:58:19.478Z,26.6
2018-09-10T15:59:20.122Z,26.6
2018-09-10T16:01:20.842Z,8.3
2018-09-10T16:02:21.754Z,8.3
2018-09-10T16:03:22.000Z,6.6
2018-09-10T16:04:27.920Z,6.6
2018-09-10T16:05:20.318Z,6.6
2018-09-10T16:06:22.096Z,4.1
2018-09-10T16:07:21.463Z,4.1
2018-09-10T16:08:19.585Z,3.8
2018-09-10T16:09:21.866Z,3.8
2018-09-10T16:10:21.661Z,3.8
2018-09-10T16:11:21.293Z,3.3
2018-09-10T16:12:19.845Z,3.3
2018-09-10T16:13:23.511Z,3.3
2018-09-10T16:14:22.536Z,5.5
2018-09-10T16:15:24.686Z,5.5
2018-09-10T16:16:27.021Z,33.6
2018-09-10T16:17:22.207Z,33.6
2018-09-10T16:18:19.734Z,33.6
2018-09-10T16:19:19.474Z,5.8
2018-09-10T16:20:19.492Z,5.8
2018-09-10T16:22:19.691Z,2.7
2018-09-10T16:23:21.218Z,2.7
2018-09-10T16:25:20.289Z,3.3
2018-09-10T16:26:20.389Z,1.9
2018-09-10T16:28:25.377Z,1.9
2018-09-10T16:29:23.206Z,4.1
2018-09-10T16:30:23.209Z,4.1
2018-09-10T16:31:23.451Z,5.5
2018-09-10T16:32:23.421Z,5.5
2018-09-10T16:33:30.946Z,5.5
2018-09-10T16:34:25.050Z,5.5
2018-09-10T16:35:29.818Z,5.5
2018-09-10T16:36:19.309Z,1.9
2018-09-10T16:37:48.744Z,1.9
2018-09-10T16:38:19.231Z,1.9
2018-09-10T16:39:19.286Z,1.9
2018-09-10T16:40:19.210Z,1.9
2018-09-10T16:41:20.600Z,1.6
2018-09-10T16:42:19.581Z,1.6
2018-09-10T16:43:22.150Z,1.6
2018-09-10T16:44:22.854Z,2.2
2018-09-10T16:45:24.949Z,2.2
2018-09-10T16:46:29.862Z,2.2
2018-09-10T16:47:25.385Z,1.3
2018-09-10T16:48:23.460Z,1.3
2018-09-10T16:49:20.054Z,2.7
2018-09-10T16:50:19.482Z,2.7
2018-09-10T16:51:19.798Z,2.7
2018-09-10T16:52:21.984Z,0.8
2018-09-10T16:53:21.087Z,0.8
2018-09-10T16:54:19.997Z,0.2
2018-09-10T16:55:19.336Z,0.2
2018-09-10T16:56:22.057Z,0.2
2018-09-10T16:57:19.548Z,1.9
2018-09-10T16:58:19.668Z,1.9
2018-09-10T16:59:20.369Z,3.6
2018-09-10T17:00:27.464Z,3.6
2018-09-10T17:01:29.895Z,3.6
2018-09-10T17:02:26.984Z,0.0
2018-09-10T17:03:20.158Z,0.0
2018-09-10T17:04:30.428Z,1.6
2018-09-10T17:05:25.504Z,1.6
2018-09-10T17:06:28.904Z,1.6
2018-09-10T17:08:24.688Z,2.5
2018-09-10T17:09:22.892Z,1.3
2018-09-10T17:10:20.404Z,1.3
2018-09-10T17:11:27.451Z,1.3
2018-09-10T17:12:23.089Z,0.2
2018-09-10T17:13:20.429Z,0.2
2018-09-10T17:14:22.547Z,0.2
2018-09-10T17:16:48.284Z,0.0